Ufa, Russia
Current Conditions -  °F | °C
As of 3:30 AM on Monday 26 Jan 2015 (Local Time) from UWUU Reporting Station
Overcast Overcast  
Wind Chill: -7°   Ceiling: 4000
Heat Index:   Visibility: 6mi
Dew Point:   Wind: 9mph
Humidity: 72%   Direction: 200°SSW
Pressure: 30.83"   Gusts: NA
Location:  54.78°N, 56.04°E
Report Text: UWUU 252230Z 20004MPS 9999 OVC040 M14/M18 Q1044 140///60 NOSIGRMK QFE772/1029
Loading
Personal Weather Stations






























Interactive Weather Map New forecast layout! Learn more

10-Day Weather Forecast

Advertisements
Track Severe Weather on mobile